sensor_id;sensor_type;location;lat;lon;timestamp;temperature;humidity
11284;DHT22;5698;47.332;11.180;2023-08-24T00:00:45;17.90;99.90
11284;DHT22;5698;47.332;11.180;2023-08-24T00:03:12;17.90;99.90
11284;DHT22;5698;47.332;11.180;2023-08-24T00:05:40;17.90;99.90
11284;DHT22;5698;47.332;11.180;2023-08-24T00:08:08;17.90;99.90
11284;DHT22;5698;47.332;11.180;2023-08-24T00:10:36;17.90;99.90
11284;DHT22;5698;47.332;11.180;2023-08-24T00:13:03;17.90;99.90
11284;DHT22;5698;47.332;11.180;2023-08-24T00:15:30;17.90;99.90
11284;DHT22;5698;47.332;11.180;2023-08-24T00:17:59;17.80;99.90
11284;DHT22;5698;47.332;11.180;2023-08-24T00:20:26;17.80;99.90
11284;DHT22;5698;47.332;11.180;2023-08-24T00:22:53;17.90;99.90
11284;DHT22;5698;47.332;11.180;2023-08-24T00:25:20;17.90;99.90
11284;DHT22;5698;47.332;11.180;2023-08-24T00:27:47;17.80;99.90
11284;DHT22;5698;47.332;11.180;2023-08-24T00:30:14;17.90;99.90
11284;DHT22;5698;47.332;11.180;2023-08-24T00:32:41;17.80;99.90
11284;DHT22;5698;47.332;11.180;2023-08-24T00:35:09;17.80;99.90
11284;DHT22;5698;47.332;11.180;2023-08-24T00:37:37;17.90;99.90
11284;DHT22;5698;47.332;11.180;2023-08-24T00:40:05;17.90;99.90
11284;DHT22;5698;47.332;11.180;2023-08-24T00:42:37;17.80;99.90
11284;DHT22;5698;47.332;11.180;2023-08-24T00:45:06;17.80;99.90
11284;DHT22;5698;47.332;11.180;2023-08-24T00:47:35;17.80;99.90
11284;DHT22;5698;47.332;11.180;2023-08-24T00:50:03;17.80;99.90
11284;DHT22;5698;47.332;11.180;2023-08-24T00:52:32;17.80;99.90
11284;DHT22;5698;47.332;11.180;2023-08-24T00:55:00;17.80;99.90
11284;DHT22;5698;47.332;11.180;2023-08-24T00:57:28;17.80;99.90
11284;DHT22;5698;47.332;11.180;2023-08-24T00:59:55;17.80;99.90
11284;DHT22;5698;47.332;11.180;2023-08-24T01:02:22;17.70;99.90
11284;DHT22;5698;47.332;11.180;2023-08-24T01:04:49;17.80;99.90
11284;DHT22;5698;47.332;11.180;2023-08-24T01:07:17;17.70;99.90
11284;DHT22;5698;47.332;11.180;2023-08-24T01:09:46;17.80;99.90
11284;DHT22;5698;47.332;11.180;2023-08-24T01:12:22;17.80;99.90
11284;DHT22;5698;47.332;11.180;2023-08-24T01:15:02;17.80;99.90
11284;DHT22;5698;47.332;11.180;2023-08-24T01:17:31;17.80;99.90
11284;DHT22;5698;47.332;11.180;2023-08-24T01:19:59;17.80;99.90
11284;DHT22;5698;47.332;11.180;2023-08-24T01:22:34;17.80;99.90
11284;DHT22;5698;47.332;11.180;2023-08-24T01:25:12;17.70;99.90
11284;DHT22;5698;47.332;11.180;2023-08-24T01:27:43;17.70;99.90
11284;DHT22;5698;47.332;11.180;2023-08-24T01:30:12;17.70;99.90
11284;DHT22;5698;47.332;11.180;2023-08-24T01:32:39;17.70;99.90
11284;DHT22;5698;47.332;11.180;2023-08-24T01:35:07;17.60;99.90
11284;DHT22;5698;47.332;11.180;2023-08-24T01:37:35;17.60;99.90
11284;DHT22;5698;47.332;11.180;2023-08-24T01:40:06;17.60;99.90
11284;DHT22;5698;47.332;11.180;2023-08-24T01:42:37;17.60;99.90
11284;DHT22;5698;47.332;11.180;2023-08-24T01:45:10;17.50;99.90
11284;DHT22;5698;47.332;11.180;2023-08-24T01:47:39;17.50;99.90
11284;DHT22;5698;47.332;11.180;2023-08-24T01:50:09;17.50;99.90
11284;DHT22;5698;47.332;11.180;2023-08-24T01:52:36;17.50;99.90
11284;DHT22;5698;47.332;11.180;2023-08-24T01:55:04;17.40;99.90
11284;DHT22;5698;47.332;11.180;2023-08-24T01:57:31;17.40;99.90
11284;DHT22;5698;47.332;11.180;2023-08-24T01:59:58;17.40;99.90
11284;DHT22;5698;47.332;11.180;2023-08-24T02:02:26;17.30;99.90
11284;DHT22;5698;47.332;11.180;2023-08-24T02:04:53;17.30;99.90
11284;DHT22;5698;47.332;11.180;2023-08-24T02:07:20;17.20;99.90
11284;DHT22;5698;47.332;11.180;2023-08-24T02:09:47;17.20;99.90
11284;DHT22;5698;47.332;11.180;2023-08-24T02:12:14;17.10;99.90
11284;DHT22;5698;47.332;11.180;2023-08-24T02:14:41;17.10;99.90
11284;DHT22;5698;47.332;11.180;2023-08-24T02:17:08;17.10;99.90
11284;DHT22;5698;47.332;11.180;2023-08-24T02:19:36;17.10;99.90
11284;DHT22;5698;47.332;11.180;2023-08-24T02:22:03;17.10;99.90
11284;DHT22;5698;47.332;11.180;2023-08-24T02:24:30;17.10;99.90
11284;DHT22;5698;47.332;11.180;2023-08-24T02:26:57;17.10;99.90
11284;DHT22;5698;47.332;11.180;2023-08-24T02:29:24;17.10;99.90
11284;DHT22;5698;47.332;11.180;2023-08-24T02:31:51;17.10;99.90
11284;DHT22;5698;47.332;11.180;2023-08-24T02:34:18;17.00;99.90
11284;DHT22;5698;47.332;11.180;2023-08-24T02:36:46;17.00;99.90
11284;DHT22;5698;47.332;11.180;2023-08-24T02:39:13;17.00;99.90
11284;DHT22;5698;47.332;11.180;2023-08-24T02:41:40;17.00;99.90
11284;DHT22;5698;47.332;11.180;2023-08-24T02:44:07;17.00;99.90
11284;DHT22;5698;47.332;11.180;2023-08-24T02:46:34;17.20;99.90
11284;DHT22;5698;47.332;11.180;2023-08-24T02:49:02;17.30;99.90
11284;DHT22;5698;47.332;11.180;2023-08-24T02:51:29;17.40;99.90
11284;DHT22;5698;47.332;11.180;2023-08-24T02:53:58;17.40;99.90
11284;DHT22;5698;47.332;11.180;2023-08-24T02:56:25;17.50;99.90
11284;DHT22;5698;47.332;11.180;2023-08-24T02:58:52;17.50;99.90
11284;DHT22;5698;47.332;11.180;2023-08-24T03:01:19;17.50;99.90
11284;DHT22;5698;47.332;11.180;2023-08-24T03:03:48;17.40;99.90
11284;DHT22;5698;47.332;11.180;2023-08-24T03:06:15;17.30;99.90
11284;DHT22;5698;47.332;11.180;2023-08-24T03:08:42;17.20;99.90
11284;DHT22;5698;47.332;11.180;2023-08-24T03:11:10;17.20;99.90
11284;DHT22;5698;47.332;11.180;2023-08-24T03:13:37;17.10;99.90
11284;DHT22;5698;47.332;11.180;2023-08-24T03:16:05;17.10;99.90
11284;DHT22;5698;47.332;11.180;2023-08-24T03:18:33;17.00;99.90
11284;DHT22;5698;47.332;11.180;2023-08-24T03:21:00;16.90;99.90
11284;DHT22;5698;47.332;11.180;2023-08-24T03:23:27;16.80;99.90
11284;DHT22;5698;47.332;11.180;2023-08-24T03:25:55;16.80;99.90
11284;DHT22;5698;47.332;11.180;2023-08-24T03:28:24;16.80;99.90
11284;DHT22;5698;47.332;11.180;2023-08-24T03:30:52;16.70;99.90
11284;DHT22;5698;47.332;11.180;2023-08-24T03:33:21;16.70;99.90
11284;DHT22;5698;47.332;11.180;2023-08-24T03:35:48;16.70;99.90
11284;DHT22;5698;47.332;11.180;2023-08-24T03:38:15;16.70;99.90
11284;DHT22;5698;47.332;11.180;2023-08-24T03:40:42;16.80;99.90
11284;DHT22;5698;47.332;11.180;2023-08-24T03:43:09;16.90;99.90
11284;DHT22;5698;47.332;11.180;2023-08-24T03:45:37;16.90;99.90
11284;DHT22;5698;47.332;11.180;2023-08-24T03:48:05;16.90;99.90
11284;DHT22;5698;47.332;11.180;2023-08-24T03:50:32;17.00;99.90
11284;DHT22;5698;47.332;11.180;2023-08-24T03:52:59;17.10;99.90
11284;DHT22;5698;47.332;11.180;2023-08-24T03:55:26;17.20;99.90
11284;DHT22;5698;47.332;11.180;2023-08-24T03:57:53;17.20;99.90
11284;DHT22;5698;47.332;11.180;2023-08-24T04:00:20;17.20;99.90
11284;DHT22;5698;47.332;11.180;2023-08-24T04:02:49;17.10;99.90
11284;DHT22;5698;47.332;11.180;2023-08-24T04:05:16;17.00;99.90
11284;DHT22;5698;47.332;11.180;2023-08-24T04:07:43;16.80;99.90
11284;DHT22;5698;47.332;11.180;2023-08-24T04:10:10;16.80;99.90
11284;DHT22;5698;47.332;11.180;2023-08-24T04:12:38;16.70;99.90
11284;DHT22;5698;47.332;11.180;2023-08-24T04:15:05;16.70;99.90
11284;DHT22;5698;47.332;11.180;2023-08-24T04:17:32;16.60;99.90
11284;DHT22;5698;47.332;11.180;2023-08-24T04:20:01;16.60;99.90
11284;DHT22;5698;47.332;11.180;2023-08-24T04:22:32;16.60;99.90
11284;DHT22;5698;47.332;11.180;2023-08-24T04:24:59;16.50;99.90
11284;DHT22;5698;47.332;11.180;2023-08-24T04:27:26;16.50;99.90
11284;DHT22;5698;47.332;11.180;2023-08-24T04:29:53;16.50;99.90
11284;DHT22;5698;47.332;11.180;2023-08-24T04:32:21;16.40;99.90
11284;DHT22;5698;47.332;11.180;2023-08-24T04:34:48;16.30;99.90
11284;DHT22;5698;47.332;11.180;2023-08-24T04:37:17;16.20;99.90
11284;DHT22;5698;47.332;11.180;2023-08-24T04:39:44;16.20;99.90
11284;DHT22;5698;47.332;11.180;2023-08-24T04:42:10;16.10;99.90
11284;DHT22;5698;47.332;11.180;2023-08-24T04:44:37;16.10;99.90
11284;DHT22;5698;47.332;11.180;2023-08-24T04:47:05;16.20;99.90
11284;DHT22;5698;47.332;11.180;2023-08-24T04:49:32;16.20;99.90
11284;DHT22;5698;47.332;11.180;2023-08-24T04:51:59;16.20;99.90
11284;DHT22;5698;47.332;11.180;2023-08-24T04:54:27;16.20;99.90
11284;DHT22;5698;47.332;11.180;2023-08-24T04:56:54;16.10;99.90
11284;DHT22;5698;47.332;11.180;2023-08-24T04:59:21;16.10;99.90
11284;DHT22;5698;47.332;11.180;2023-08-24T05:01:48;16.20;99.90
11284;DHT22;5698;47.332;11.180;2023-08-24T05:04:15;16.10;99.90
11284;DHT22;5698;47.332;11.180;2023-08-24T05:06:42;16.10;99.90
11284;DHT22;5698;47.332;11.180;2023-08-24T05:09:09;16.10;99.90
11284;DHT22;5698;47.332;11.180;2023-08-24T05:11:37;16.10;99.90
11284;DHT22;5698;47.332;11.180;2023-08-24T05:14:04;16.20;99.90
11284;DHT22;5698;47.332;11.180;2023-08-24T05:16:31;16.20;99.90
11284;DHT22;5698;47.332;11.180;2023-08-24T05:18:58;16.20;99.90
11284;DHT22;5698;47.332;11.180;2023-08-24T05:21:25;16.20;99.90
11284;DHT22;5698;47.332;11.180;2023-08-24T05:23:52;16.20;99.90
11284;DHT22;5698;47.332;11.180;2023-08-24T05:26:19;16.20;99.90
11284;DHT22;5698;47.332;11.180;2023-08-24T05:28:52;16.30;99.90
11284;DHT22;5698;47.332;11.180;2023-08-24T05:31:19;16.30;99.90
11284;DHT22;5698;47.332;11.180;2023-08-24T05:33:46;16.30;99.90
11284;DHT22;5698;47.332;11.180;2023-08-24T05:36:13;16.40;99.90
11284;DHT22;5698;47.332;11.180;2023-08-24T05:38:40;16.40;99.90
11284;DHT22;5698;47.332;11.180;2023-08-24T05:41:12;16.50;99.90
11284;DHT22;5698;47.332;11.180;2023-08-24T05:43:39;16.50;99.90
11284;DHT22;5698;47.332;11.180;2023-08-24T05:46:08;16.70;99.90
11284;DHT22;5698;47.332;11.180;2023-08-24T05:48:35;16.80;99.90
11284;DHT22;5698;47.332;11.180;2023-08-24T05:51:02;17.00;99.90
11284;DHT22;5698;47.332;11.180;2023-08-24T05:53:29;17.10;99.90
11284;DHT22;5698;47.332;11.180;2023-08-24T05:55:59;17.30;99.90
11284;DHT22;5698;47.332;11.180;2023-08-24T05:58:26;17.50;99.90
11284;DHT22;5698;47.332;11.180;2023-08-24T06:00:57;17.80;99.90
11284;DHT22;5698;47.332;11.180;2023-08-24T06:03:26;18.00;99.90
11284;DHT22;5698;47.332;11.180;2023-08-24T06:05:53;18.20;99.90
11284;DHT22;5698;47.332;11.180;2023-08-24T06:08:20;18.40;99.90
11284;DHT22;5698;47.332;11.180;2023-08-24T06:10:47;18.60;99.90
11284;DHT22;5698;47.332;11.180;2023-08-24T06:13:14;18.70;99.90
11284;DHT22;5698;47.332;11.180;2023-08-24T06:15:42;18.80;99.90
11284;DHT22;5698;47.332;11.180;2023-08-24T06:18:09;18.80;99.90
11284;DHT22;5698;47.332;11.180;2023-08-24T06:20:37;18.90;99.90
11284;DHT22;5698;47.332;11.180;2023-08-24T06:23:04;18.90;99.90
11284;DHT22;5698;47.332;11.180;2023-08-24T06:25:31;19.00;99.90
11284;DHT22;5698;47.332;11.180;2023-08-24T06:27:58;19.10;99.90
11284;DHT22;5698;47.332;11.180;2023-08-24T06:30:26;19.10;99.90
11284;DHT22;5698;47.332;11.180;2023-08-24T06:32:53;19.30;99.90
11284;DHT22;5698;47.332;11.180;2023-08-24T06:35:20;19.50;99.90
11284;DHT22;5698;47.332;11.180;2023-08-24T06:37:48;19.70;99.90
11284;DHT22;5698;47.332;11.180;2023-08-24T06:40:15;19.80;99.90
11284;DHT22;5698;47.332;11.180;2023-08-24T06:42:43;19.90;99.90
11284;DHT22;5698;47.332;11.180;2023-08-24T06:45:10;20.00;99.90
11284;DHT22;5698;47.332;11.180;2023-08-24T06:47:37;20.10;99.90
11284;DHT22;5698;47.332;11.180;2023-08-24T06:50:05;20.20;99.90
11284;DHT22;5698;47.332;11.180;2023-08-24T06:52:32;20.40;99.90
11284;DHT22;5698;47.332;11.180;2023-08-24T06:55:01;20.50;99.90
11284;DHT22;5698;47.332;11.180;2023-08-24T06:57:28;20.60;99.90
11284;DHT22;5698;47.332;11.180;2023-08-24T06:59:55;20.80;99.90
11284;DHT22;5698;47.332;11.180;2023-08-24T07:02:22;20.90;99.90
11284;DHT22;5698;47.332;11.180;2023-08-24T07:04:49;21.10;99.90
11284;DHT22;5698;47.332;11.180;2023-08-24T07:07:16;21.20;99.90
11284;DHT22;5698;47.332;11.180;2023-08-24T07:09:44;21.40;99.90
11284;DHT22;5698;47.332;11.180;2023-08-24T07:12:12;21.60;99.90
11284;DHT22;5698;47.332;11.180;2023-08-24T07:14:39;21.90;99.90
11284;DHT22;5698;47.332;11.180;2023-08-24T07:17:06;22.00;99.70
11284;DHT22;5698;47.332;11.180;2023-08-24T07:19:33;22.10;99.90
11284;DHT22;5698;47.332;11.180;2023-08-24T07:22:00;22.20;99.80
11284;DHT22;5698;47.332;11.180;2023-08-24T07:24:27;22.40;99.10
11284;DHT22;5698;47.332;11.180;2023-08-24T07:26:55;22.60;98.30
11284;DHT22;5698;47.332;11.180;2023-08-24T07:29:24;22.70;97.30
11284;DHT22;5698;47.332;11.180;2023-08-24T07:31:51;22.90;97.50
11284;DHT22;5698;47.332;11.180;2023-08-24T07:34:18;23.00;96.60
11284;DHT22;5698;47.332;11.180;2023-08-24T07:36:45;23.10;96.50
11284;DHT22;5698;47.332;11.180;2023-08-24T07:39:14;23.20;97.90
11284;DHT22;5698;47.332;11.180;2023-08-24T07:41:41;23.30;98.70
11284;DHT22;5698;47.332;11.180;2023-08-24T07:44:08;23.50;97.90
11284;DHT22;5698;47.332;11.180;2023-08-24T07:46:39;23.90;95.00
11284;DHT22;5698;47.332;11.180;2023-08-24T07:49:06;24.00;94.50
11284;DHT22;5698;47.332;11.180;2023-08-24T07:51:33;24.20;93.80
11284;DHT22;5698;47.332;11.180;2023-08-24T07:54:00;24.30;93.40
11284;DHT22;5698;47.332;11.180;2023-08-24T07:56:27;24.50;93.00
11284;DHT22;5698;47.332;11.180;2023-08-24T07:58:54;24.60;93.20
11284;DHT22;5698;47.332;11.180;2023-08-24T08:01:21;24.70;92.10
11284;DHT22;5698;47.332;11.180;2023-08-24T08:03:49;24.90;91.30
11284;DHT22;5698;47.332;11.180;2023-08-24T08:06:16;24.90;90.90
11284;DHT22;5698;47.332;11.180;2023-08-24T08:08:43;25.00;91.20
11284;DHT22;5698;47.332;11.180;2023-08-24T08:11:12;25.00;90.90
11284;DHT22;5698;47.332;11.180;2023-08-24T08:13:39;25.10;90.60
11284;DHT22;5698;47.332;11.180;2023-08-24T08:16:07;25.20;90.30
11284;DHT22;5698;47.332;11.180;2023-08-24T08:18:35;25.30;89.40
11284;DHT22;5698;47.332;11.180;2023-08-24T08:21:10;25.40;89.30
11284;DHT22;5698;47.332;11.180;2023-08-24T08:23:37;25.50;87.50
11284;DHT22;5698;47.332;11.180;2023-08-24T08:26:05;25.70;86.30
11284;DHT22;5698;47.332;11.180;2023-08-24T08:28:32;25.80;84.20
11284;DHT22;5698;47.332;11.180;2023-08-24T08:31:00;25.90;84.60
11284;DHT22;5698;47.332;11.180;2023-08-24T08:33:27;26.10;82.60
11284;DHT22;5698;47.332;11.180;2023-08-24T08:35:54;26.10;77.40
11284;DHT22;5698;47.332;11.180;2023-08-24T08:38:23;26.10;77.90
11284;DHT22;5698;47.332;11.180;2023-08-24T08:40:53;26.10;80.10
11284;DHT22;5698;47.332;11.180;2023-08-24T08:43:21;26.20;77.90
11284;DHT22;5698;47.332;11.180;2023-08-24T08:45:49;26.30;78.70
11284;DHT22;5698;47.332;11.180;2023-08-24T08:48:18;26.40;79.10
11284;DHT22;5698;47.332;11.180;2023-08-24T08:50:48;26.40;77.30
11284;DHT22;5698;47.332;11.180;2023-08-24T08:53:16;26.50;78.50
11284;DHT22;5698;47.332;11.180;2023-08-24T08:55:44;26.70;75.30
11284;DHT22;5698;47.332;11.180;2023-08-24T08:58:12;26.70;77.20
11284;DHT22;5698;47.332;11.180;2023-08-24T09:00:39;26.80;75.40
11284;DHT22;5698;47.332;11.180;2023-08-24T09:03:08;26.90;76.00
11284;DHT22;5698;47.332;11.180;2023-08-24T09:05:37;27.00;75.20
11284;DHT22;5698;47.332;11.180;2023-08-24T09:08:05;27.00;74.80
11284;DHT22;5698;47.332;11.180;2023-08-24T09:10:32;27.10;74.30
11284;DHT22;5698;47.332;11.180;2023-08-24T09:13:00;27.10;74.60
11284;DHT22;5698;47.332;11.180;2023-08-24T09:15:34;27.10;73.10
11284;DHT22;5698;47.332;11.180;2023-08-24T09:18:01;27.20;72.70
11284;DHT22;5698;47.332;11.180;2023-08-24T09:20:29;27.20;72.00
11284;DHT22;5698;47.332;11.180;2023-08-24T09:22:56;27.40;73.20
11284;DHT22;5698;47.332;11.180;2023-08-24T09:25:23;27.50;71.90
11284;DHT22;5698;47.332;11.180;2023-08-24T09:27:56;27.70;71.30
11284;DHT22;5698;47.332;11.180;2023-08-24T09:30:29;27.90;69.70
11284;DHT22;5698;47.332;11.180;2023-08-24T09:33:01;27.90;69.20
11284;DHT22;5698;47.332;11.180;2023-08-24T09:35:28;28.00;70.30
11284;DHT22;5698;47.332;11.180;2023-08-24T09:37:55;28.20;68.60
11284;DHT22;5698;47.332;11.180;2023-08-24T09:40:24;28.40;68.80
11284;DHT22;5698;47.332;11.180;2023-08-24T09:42:52;28.50;69.30
11284;DHT22;5698;47.332;11.180;2023-08-24T09:45:19;28.60;68.30
11284;DHT22;5698;47.332;11.180;2023-08-24T09:47:49;28.70;67.50
11284;DHT22;5698;47.332;11.180;2023-08-24T09:50:17;28.80;66.40
11284;DHT22;5698;47.332;11.180;2023-08-24T09:52:45;28.90;65.40
11284;DHT22;5698;47.332;11.180;2023-08-24T09:55:18;29.00;66.20
11284;DHT22;5698;47.332;11.180;2023-08-24T09:57:50;29.20;64.20
11284;DHT22;5698;47.332;11.180;2023-08-24T10:00:19;29.30;62.20
11284;DHT22;5698;47.332;11.180;2023-08-24T10:02:52;29.40;61.30
11284;DHT22;5698;47.332;11.180;2023-08-24T10:05:21;29.50;60.20
11284;DHT22;5698;47.332;11.180;2023-08-24T10:07:52;29.60;58.60
11284;DHT22;5698;47.332;11.180;2023-08-24T10:10:20;29.70;59.00
11284;DHT22;5698;47.332;11.180;2023-08-24T10:12:51;29.80;60.80
11284;DHT22;5698;47.332;11.180;2023-08-24T10:15:19;29.90;58.40
11284;DHT22;5698;47.332;11.180;2023-08-24T10:17:51;30.00;58.60
11284;DHT22;5698;47.332;11.180;2023-08-24T10:20:19;30.10;59.80
11284;DHT22;5698;47.332;11.180;2023-08-24T10:22:47;30.20;60.40
11284;DHT22;5698;47.332;11.180;2023-08-24T10:25:16;30.40;62.00
11284;DHT22;5698;47.332;11.180;2023-08-24T10:27:45;30.60;57.50
11284;DHT22;5698;47.332;11.180;2023-08-24T10:30:14;30.70;57.40
11284;DHT22;5698;47.332;11.180;2023-08-24T10:32:42;30.80;57.80
11284;DHT22;5698;47.332;11.180;2023-08-24T10:35:10;30.90;58.80
11284;DHT22;5698;47.332;11.180;2023-08-24T10:37:41;31.10;57.50
11284;DHT22;5698;47.332;11.180;2023-08-24T10:40:11;31.20;60.00
11284;DHT22;5698;47.332;11.180;2023-08-24T10:42:46;31.40;59.00
11284;DHT22;5698;47.332;11.180;2023-08-24T10:45:13;31.50;63.70
11284;DHT22;5698;47.332;11.180;2023-08-24T10:47:44;31.70;55.50
11284;DHT22;5698;47.332;11.180;2023-08-24T10:50:14;31.70;54.90
11284;DHT22;5698;47.332;11.180;2023-08-24T10:52:43;31.80;55.80
11284;DHT22;5698;47.332;11.180;2023-08-24T10:55:25;31.90;56.90
11284;DHT22;5698;47.332;11.180;2023-08-24T10:57:56;32.20;54.80
11284;DHT22;5698;47.332;11.180;2023-08-24T11:00:26;32.40;51.90
11284;DHT22;5698;47.332;11.180;2023-08-24T11:02:53;32.50;51.60
11284;DHT22;5698;47.332;11.180;2023-08-24T11:05:23;32.60;51.20
11284;DHT22;5698;47.332;11.180;2023-08-24T11:07:54;32.80;50.30
11284;DHT22;5698;47.332;11.180;2023-08-24T11:10:23;32.90;51.60
11284;DHT22;5698;47.332;11.180;2023-08-24T11:13:10;32.90;49.90
11284;DHT22;5698;47.332;11.180;2023-08-24T11:15:39;32.90;48.80
11284;DHT22;5698;47.332;11.180;2023-08-24T11:18:23;32.90;48.80
11284;DHT22;5698;47.332;11.180;2023-08-24T11:20:53;32.90;49.20
11284;DHT22;5698;47.332;11.180;2023-08-24T11:23:22;32.90;47.20
11284;DHT22;5698;47.332;11.180;2023-08-24T11:25:51;33.00;48.20
11284;DHT22;5698;47.332;11.180;2023-08-24T11:28:20;33.00;47.30
11284;DHT22;5698;47.332;11.180;2023-08-24T11:30:47;33.10;47.90
11284;DHT22;5698;47.332;11.180;2023-08-24T11:33:16;33.10;48.80
11284;DHT22;5698;47.332;11.180;2023-08-24T11:35:45;33.30;46.40
11284;DHT22;5698;47.332;11.180;2023-08-24T11:38:14;33.30;47.40
11284;DHT22;5698;47.332;11.180;2023-08-24T11:40:41;33.50;46.40
11284;DHT22;5698;47.332;11.180;2023-08-24T11:43:08;33.50;46.80
11284;DHT22;5698;47.332;11.180;2023-08-24T11:45:36;33.60;46.70
11284;DHT22;5698;47.332;11.180;2023-08-24T11:48:06;33.60;45.30
11284;DHT22;5698;47.332;11.180;2023-08-24T11:50:36;33.60;45.80
11284;DHT22;5698;47.332;11.180;2023-08-24T11:53:06;33.70;47.40
11284;DHT22;5698;47.332;11.180;2023-08-24T11:55:39;33.70;47.30
11284;DHT22;5698;47.332;11.180;2023-08-24T11:58:13;33.60;49.20
11284;DHT22;5698;47.332;11.180;2023-08-24T12:00:41;33.60;49.60
11284;DHT22;5698;47.332;11.180;2023-08-24T12:03:08;33.70;48.80
11284;DHT22;5698;47.332;11.180;2023-08-24T12:05:36;33.80;49.00
11284;DHT22;5698;47.332;11.180;2023-08-24T12:08:03;33.90;47.90
11284;DHT22;5698;47.332;11.180;2023-08-24T12:10:30;34.00;49.20
11284;DHT22;5698;47.332;11.180;2023-08-24T12:13:02;34.10;48.70
11284;DHT22;5698;47.332;11.180;2023-08-24T12:15:31;34.20;48.50
11284;DHT22;5698;47.332;11.180;2023-08-24T12:18:07;34.10;49.00
11284;DHT22;5698;47.332;11.180;2023-08-24T12:20:34;34.10;48.00
11284;DHT22;5698;47.332;11.180;2023-08-24T12:23:01;34.10;48.10
11284;DHT22;5698;47.332;11.180;2023-08-24T12:25:28;34.10;48.40
11284;DHT22;5698;47.332;11.180;2023-08-24T12:28:10;34.20;47.90
11284;DHT22;5698;47.332;11.180;2023-08-24T12:30:44;34.30;47.90
11284;DHT22;5698;47.332;11.180;2023-08-24T12:33:21;34.30;50.60
11284;DHT22;5698;47.332;11.180;2023-08-24T12:35:49;34.30;48.30
11284;DHT22;5698;47.332;11.180;2023-08-24T12:38:16;34.30;47.90
11284;DHT22;5698;47.332;11.180;2023-08-24T12:40:43;34.40;46.50
11284;DHT22;5698;47.332;11.180;2023-08-24T12:43:11;34.30;45.60
11284;DHT22;5698;47.332;11.180;2023-08-24T12:45:39;34.30;44.60
11284;DHT22;5698;47.332;11.180;2023-08-24T12:48:06;34.20;45.70
11284;DHT22;5698;47.332;11.180;2023-08-24T12:50:34;34.10;46.10
11284;DHT22;5698;47.332;11.180;2023-08-24T12:53:01;34.10;47.20
11284;DHT22;5698;47.332;11.180;2023-08-24T12:55:29;34.10;48.60
11284;DHT22;5698;47.332;11.180;2023-08-24T12:57:55;34.10;48.80
11284;DHT22;5698;47.332;11.180;2023-08-24T13:00:24;34.10;46.50
11284;DHT22;5698;47.332;11.180;2023-08-24T13:02:52;34.20;44.80
11284;DHT22;5698;47.332;11.180;2023-08-24T13:05:19;34.20;45.60
11284;DHT22;5698;47.332;11.180;2023-08-24T13:07:46;34.20;45.80
11284;DHT22;5698;47.332;11.180;2023-08-24T13:10:16;34.30;48.10
11284;DHT22;5698;47.332;11.180;2023-08-24T13:12:43;34.40;48.00
11284;DHT22;5698;47.332;11.180;2023-08-24T13:15:10;34.50;48.60
11284;DHT22;5698;47.332;11.180;2023-08-24T13:17:39;34.60;48.50
11284;DHT22;5698;47.332;11.180;2023-08-24T13:20:07;34.60;49.90
11284;DHT22;5698;47.332;11.180;2023-08-24T13:22:34;34.70;49.50
11284;DHT22;5698;47.332;11.180;2023-08-24T13:25:01;34.60;48.00
11284;DHT22;5698;47.332;11.180;2023-08-24T13:27:28;34.70;46.80
11284;DHT22;5698;47.332;11.180;2023-08-24T13:29:59;34.70;48.70
11284;DHT22;5698;47.332;11.180;2023-08-24T13:32:26;34.70;48.20
11284;DHT22;5698;47.332;11.180;2023-08-24T13:34:54;34.70;48.30
11284;DHT22;5698;47.332;11.180;2023-08-24T13:37:22;34.60;46.00
11284;DHT22;5698;47.332;11.180;2023-08-24T13:39:49;34.60;45.30
11284;DHT22;5698;47.332;11.180;2023-08-24T13:42:16;34.60;45.20
11284;DHT22;5698;47.332;11.180;2023-08-24T13:44:44;34.60;46.40
11284;DHT22;5698;47.332;11.180;2023-08-24T13:47:11;34.60;46.40
11284;DHT22;5698;47.332;11.180;2023-08-24T13:49:38;34.60;46.40
11284;DHT22;5698;47.332;11.180;2023-08-24T13:52:06;34.60;46.70
11284;DHT22;5698;47.332;11.180;2023-08-24T13:54:34;34.50;47.40
11284;DHT22;5698;47.332;11.180;2023-08-24T13:57:01;34.50;48.30
11284;DHT22;5698;47.332;11.180;2023-08-24T13:59:28;34.40;48.30
11284;DHT22;5698;47.332;11.180;2023-08-24T14:01:55;34.40;47.20
11284;DHT22;5698;47.332;11.180;2023-08-24T14:04:23;34.30;46.70
11284;DHT22;5698;47.332;11.180;2023-08-24T14:06:50;34.20;48.20
11284;DHT22;5698;47.332;11.180;2023-08-24T14:09:18;34.20;48.70
11284;DHT22;5698;47.332;11.180;2023-08-24T14:11:45;34.10;50.60
11284;DHT22;5698;47.332;11.180;2023-08-24T14:14:13;33.90;50.90
11284;DHT22;5698;47.332;11.180;2023-08-24T14:16:40;33.70;52.00
11284;DHT22;5698;47.332;11.180;2023-08-24T14:19:07;33.50;50.10
11284;DHT22;5698;47.332;11.180;2023-08-24T14:21:34;33.20;50.00
11284;DHT22;5698;47.332;11.180;2023-08-24T14:24:01;33.00;49.70
11284;DHT22;5698;47.332;11.180;2023-08-24T14:26:29;32.80;53.70
11284;DHT22;5698;47.332;11.180;2023-08-24T14:28:57;32.70;52.20
11284;DHT22;5698;47.332;11.180;2023-08-24T14:31:25;32.60;53.90
11284;DHT22;5698;47.332;11.180;2023-08-24T14:33:52;32.40;54.20
11284;DHT22;5698;47.332;11.180;2023-08-24T14:36:20;32.30;54.70
11284;DHT22;5698;47.332;11.180;2023-08-24T14:38:47;32.20;54.30
11284;DHT22;5698;47.332;11.180;2023-08-24T14:41:15;32.10;55.60
11284;DHT22;5698;47.332;11.180;2023-08-24T14:43:44;31.90;56.50
11284;DHT22;5698;47.332;11.180;2023-08-24T14:46:12;31.80;57.10
11284;DHT22;5698;47.332;11.180;2023-08-24T14:48:39;31.80;58.10
11284;DHT22;5698;47.332;11.180;2023-08-24T14:51:06;31.60;51.80
11284;DHT22;5698;47.332;11.180;2023-08-24T14:53:33;31.50;52.60
11284;DHT22;5698;47.332;11.180;2023-08-24T14:56:00;31.40;52.80
11284;DHT22;5698;47.332;11.180;2023-08-24T14:58:28;31.30;52.10
11284;DHT22;5698;47.332;11.180;2023-08-24T15:00:57;31.20;53.10
11284;DHT22;5698;47.332;11.180;2023-08-24T15:03:24;31.10;53.10
11284;DHT22;5698;47.332;11.180;2023-08-24T15:05:59;31.10;52.70
11284;DHT22;5698;47.332;11.180;2023-08-24T15:08:27;30.90;52.70
11284;DHT22;5698;47.332;11.180;2023-08-24T15:10:55;30.80;53.70
11284;DHT22;5698;47.332;11.180;2023-08-24T15:13:23;30.80;52.90
11284;DHT22;5698;47.332;11.180;2023-08-24T15:15:52;30.70;52.20
11284;DHT22;5698;47.332;11.180;2023-08-24T15:18:21;30.60;53.20
11284;DHT22;5698;47.332;11.180;2023-08-24T15:20:48;30.50;54.50
11284;DHT22;5698;47.332;11.180;2023-08-24T15:23:22;30.50;57.20
11284;DHT22;5698;47.332;11.180;2023-08-24T15:25:49;30.30;55.20
11284;DHT22;5698;47.332;11.180;2023-08-24T15:28:16;30.20;54.40
11284;DHT22;5698;47.332;11.180;2023-08-24T15:30:43;30.20;53.90
11284;DHT22;5698;47.332;11.180;2023-08-24T15:33:10;30.10;52.80
11284;DHT22;5698;47.332;11.180;2023-08-24T15:35:39;30.00;54.00